createdAt,value
2017-02-24T00:06:14.300Z,0
2017-02-24T00:16:14.302Z,0
2017-02-24T00:26:14.423Z,0
2017-02-24T00:36:14.426Z,0
2017-02-24T00:46:14.333Z,0
2017-02-24T00:56:14.335Z,0
2017-02-24T01:06:14.321Z,0
2017-02-24T01:16:14.417Z,0
2017-02-24T01:26:14.352Z,0
2017-02-24T01:36:14.442Z,0
2017-02-24T01:46:14.350Z,0
2017-02-24T01:56:14.369Z,0
2017-02-24T02:06:14.427Z,0
2017-02-24T02:16:14.372Z,0
2017-02-24T02:26:14.391Z,0
2017-02-24T02:36:14.458Z,0
2017-02-24T02:46:14.431Z,0
2017-02-24T02:56:14.408Z,0
2017-02-24T03:06:14.504Z,0
2017-02-24T03:16:14.425Z,0
2017-02-24T03:26:14.456Z,0
2017-02-24T03:36:14.451Z,0
2017-02-24T03:46:14.439Z,0
2017-02-24T03:56:14.491Z,0
2017-02-24T04:06:14.464Z,0
2017-02-24T04:16:14.492Z,0
2017-02-24T04:26:14.480Z,0
2017-02-24T04:36:14.518Z,0
2017-02-24T04:46:14.532Z,0
2017-02-24T04:56:14.470Z,0
2017-02-24T05:06:14.506Z,0
2017-02-24T05:16:14.581Z,0
2017-02-24T05:26:14.517Z,0
2017-02-24T05:36:14.535Z,0
2017-02-24T05:46:14.526Z,0
2017-02-24T05:56:14.544Z,4
2017-02-24T06:06:14.524Z,16
2017-02-24T06:16:14.659Z,80
2017-02-24T06:26:14.623Z,224
2017-02-24T06:36:14.571Z,480
2017-02-24T06:46:14.571Z,708
2017-02-24T06:56:14.591Z,1096
2017-02-24T07:06:14.685Z,1752
2017-02-24T07:16:14.608Z,2896
2017-02-24T07:26:14.723Z,3332
2017-02-24T07:36:14.593Z,3468
2017-02-24T07:46:14.732Z,3104
2017-02-24T07:56:14.663Z,3624
2017-02-24T08:06:14.769Z,4220
2017-02-24T08:16:14.756Z,5516
2017-02-24T08:26:14.649Z,5452
2017-02-24T08:36:14.686Z,6452
2017-02-24T08:46:14.729Z,6820
2017-02-24T08:56:14.660Z,5764
2017-02-24T09:06:14.700Z,5684
2017-02-24T09:16:14.676Z,5024
2017-02-24T09:26:14.705Z,4792
2017-02-24T09:36:14.717Z,3760
2017-02-24T09:46:14.739Z,3536
2017-02-24T09:56:14.750Z,3384
2017-02-24T10:06:14.757Z,3440
2017-02-24T10:16:14.731Z,3788
2017-02-24T10:26:14.743Z,9140
2017-02-24T10:36:15.131Z,4616
2017-02-24T10:46:14.810Z,8172
2017-02-24T10:56:14.799Z,7072
2017-02-24T11:06:14.821Z,4480
2017-02-24T11:16:14.780Z,15140
2017-02-24T11:26:14.858Z,10648
2017-02-24T11:36:14.794Z,13376
2017-02-24T11:46:14.804Z,15012
2017-02-24T11:56:14.829Z,13732
2017-02-24T12:06:14.897Z,14460
2017-02-24T12:16:14.850Z,4824
2017-02-24T12:26:14.869Z,4040
2017-02-24T12:36:14.860Z,9312
2017-02-24T12:46:14.889Z,9692
2017-02-24T12:56:14.944Z,12352
2017-02-24T13:06:14.933Z,9936
2017-02-24T13:16:14.944Z,6452
2017-02-24T13:26:15.065Z,3560
2017-02-24T13:36:15.004Z,3480
2017-02-24T13:46:14.937Z,2924
2017-02-24T13:56:15.072Z,3540
2017-02-24T14:06:15.061Z,3972
2017-02-24T14:16:14.952Z,5324
2017-02-24T14:26:15.088Z,4064
2017-02-24T14:36:14.956Z,3180
2017-02-24T14:46:15.046Z,3260
2017-02-24T14:56:14.979Z,6288
2017-02-24T15:06:15.029Z,5964
2017-02-24T15:16:15.018Z,6028
2017-02-24T15:26:15.021Z,3888
2017-02-24T15:36:14.987Z,2596
2017-02-24T15:46:15.745Z,3268
2017-02-24T15:56:15.080Z,3204
2017-02-24T16:06:15.109Z,2704
2017-02-24T16:16:15.104Z,2108
2017-02-24T16:26:15.096Z,1312
2017-02-24T16:36:16.381Z,956
2017-02-24T16:46:15.079Z,656
2017-02-24T16:56:15.101Z,312
2017-02-24T17:06:15.115Z,116
2017-02-24T17:16:15.117Z,28
2017-02-24T17:26:17.156Z,8
2017-02-24T17:36:15.155Z,0
2017-02-24T17:46:15.147Z,0
2017-02-24T17:56:15.197Z,0
2017-02-24T18:06:15.257Z,0
2017-02-24T18:16:15.173Z,0
2017-02-24T18:26:15.152Z,0
2017-02-24T18:36:15.190Z,0
2017-02-24T18:46:15.296Z,0
2017-02-24T18:56:16.048Z,0
2017-02-24T19:06:17.867Z,0
2017-02-24T19:16:15.310Z,0
2017-02-24T19:26:15.231Z,4
2017-02-24T19:36:15.359Z,0
2017-02-24T19:46:15.264Z,0
2017-02-24T19:56:15.238Z,0
2017-02-24T20:06:15.233Z,0
2017-02-24T20:16:15.367Z,0
2017-02-24T20:26:15.305Z,0
2017-02-24T20:36:15.309Z,0
2017-02-24T20:46:15.381Z,0
2017-02-24T20:56:15.337Z,0
2017-02-24T21:06:15.331Z,0
2017-02-24T21:16:15.325Z,0
2017-02-24T21:26:15.331Z,0
2017-02-24T21:36:15.420Z,0
2017-02-24T21:46:15.982Z,0
2017-02-24T21:56:15.387Z,0
2017-02-24T22:06:15.430Z,0
2017-02-24T22:16:15.381Z,0
2017-02-24T22:26:15.366Z,0
2017-02-24T22:36:16.445Z,0
2017-02-24T22:46:15.415Z,0
2017-02-24T22:56:15.441Z,0
2017-02-24T23:06:15.343Z,0
2017-02-24T23:16:15.388Z,0
2017-02-24T23:26:15.439Z,0
2017-02-24T23:36:16.071Z,0
2017-02-24T23:46:15.423Z,0
2017-02-24T23:56:15.372Z,0
